Flag for Algeria

Past Weather in Oran, Algeria — Yesterday and Last 2 Weeks

Currently: 59 °F. Passing clouds. (Weather station: Oran / Es Senia, Algeria). See more current weather

Past Weather in Oran — Graph

°F

Oran Temperature Yesterday

Maximum temperature yesterday: 68 °F (at 12:00 pm)
Minimum temperature yesterday: 52 °F (at 5:00 am)
Average temperature yesterday: 60 °F

High & Low Weather Summary for the Past Weeks

 TemperatureHumidityPressure
High72 °F (Jan 22, 1:00 pm)100% (Jan 11, 4:00 am)30.42 "Hg (Jan 11, 4:00 am)
Low34 °F (Jan 13, 8:30 am)32% (Jan 17, 3:00 pm)29.74 "Hg (Jan 10, 2:00 am)
Average50 °F79%30.18 "Hg
* Reported Jan 10 2:00 am — Jan 25 2:00 am, Oran. Weather by CustomWeather, © 2021

Note: Actual official high and low records may vary slightly from our data, if they occured in-between our weather recording intervals... More about our weather records

Oran Weather History for the Previous 24 Hours

Scroll right to see more
 ConditionsComfort  
Time TempWeatherWind HumidityBarometerVisibility
2:00 am
Mon, Jan 25
59 °FPassing clouds.14 mph88%30.04 "HgN/A
1:30 am59 °FPassing clouds.16 mph88%30.07 "HgN/A
1:00 am59 °FPassing clouds.16 mph88%30.07 "HgN/A
12:30 am59 °FPassing clouds.15 mph82%30.07 "HgN/A
12:00 am59 °FPassing clouds.15 mph88%30.07 "HgN/A
11:30 pm
Sun, Jan 24
61 °FPassing clouds.16 mph83%30.04 "HgN/A
11:00 pm61 °FPassing clouds.16 mph83%30.04 "HgN/A
10:30 pm61 °FPassing clouds.16 mph77%30.04 "HgN/A
10:00 pm61 °FPassing clouds.16 mph77%30.04 "HgN/A
9:30 pm61 °FPassing clouds.18 mph77%30.04 "HgN/A
9:00 pm59 °FPassing clouds.13 mph82%30.04 "HgN/A
8:30 pm61 °FPassing clouds.12 mph72%30.04 "HgN/A
8:00 pm61 °FPassing clouds.12 mph68%30.04 "HgN/A
7:30 pm63 °FPassing clouds.16 mph59%30.01 "HgN/A
7:00 pm63 °FPassing clouds.16 mph59%30.01 "HgN/A
6:30 pm64 °FPassing clouds.18 mph60%30.01 "HgN/A
6:00 pm64 °FPartly sunny.16 mph60%30.01 "HgN/A
5:30 pm64 °FPartly sunny.17 mph60%30.04 "HgN/A
5:00 pm66 °FPartly sunny.18 mph56%30.04 "HgN/A
4:30 pm66 °FScattered clouds.22 mph56%30.04 "HgN/A
4:00 pm66 °FScattered clouds.24 mph52%30.04 "HgN/A
3:30 pm66 °FScattered clouds.23 mph49%30.04 "HgN/A
3:00 pm66 °FScattered clouds.21 mph52%30.04 "HgN/A
2:30 pm66 °FScattered clouds.25 mph49%30.04 "HgN/A
2:00 pm66 °FScattered clouds.24 mph49%30.04 "HgN/A
1:30 pm66 °FScattered clouds.24 mph52%30.04 "HgN/A
1:00 pm68 °FScattered clouds.17 mph49%30.07 "HgN/A
12:30 pm68 °FScattered clouds.24 mph49%30.07 "HgN/A
12:00 pm68 °FScattered clouds.25 mph49%30.07 "HgN/A
11:30 am66 °FScattered clouds.26 mph52%30.04 "HgN/A
11:00 am66 °FScattered clouds.25 mph52%30.01 "HgN/A
10:30 am64 °FScattered clouds.22 mph56%30.01 "HgN/A
10:00 am61 °FScattered clouds.18 mph59%30.01 "HgN/A
9:30 am59 °FPassing clouds.15 mph59%30.01 "HgN/A
9:00 am57 °FPassing clouds.13 mph63%30.01 "HgN/A
8:30 am55 °FPassing clouds.10 mph67%30.01 "HgN/A
8:00 am55 °FPassing clouds.13 mph67%30.01 "HgN/A
7:30 am57 °FPassing clouds.17 mph59%29.98 "HgN/A
7:00 am57 °FPassing clouds.18 mph59%29.98 "HgN/A
6:30 am52 °FPassing clouds.10 mph77%29.98 "HgN/A
6:00 am52 °FPassing clouds.10 mph77%29.98 "HgN/A
5:30 am52 °FPassing clouds.10 mph77%29.98 "HgN/A
5:00 am52 °FPassing clouds.12 mph77%29.98 "HgN/A
4:30 am55 °FPassing clouds.15 mph77%29.98 "HgN/A
4:00 am55 °FPassing clouds.16 mph77%29.98 "HgN/A
3:30 am55 °FPassing clouds.18 mph77%30.01 "HgN/A
3:00 am55 °FPassing clouds.17 mph77%30.01 "HgN/A
Weather by CustomWeather, © 2021

See weather overview